Time;durP1;ratioP1;P1;durP2;ratioP2;P2;SDS_P1;SDS_P2;PMS_P1;PMS_P2;Temp;Humidity;BMP_temperature;BMP_pressure;BME280_temperature;BME280_humidity;BME280_pressure;Samples;Min_cycle;Max_cycle;Signal;HPM_P1;HPM_P2
2024/03/04 00:04:39;;;;;;;1.58;1.35;;;;;;;8.09;100.00;100770.41;10491075;28;20167;-69
2024/03/04 00:09:40;;;;;;;1.50;1.38;;;;;;;8.16;100.00;100774.06;10492039;28;20024;-68
2024/03/04 00:14:40;;;;;;;1.88;1.77;;;;;;;8.14;100.00;100775.28;10492428;28;20029;-69
2024/03/04 00:19:41;;;;;;;1.63;1.45;;;;;;;8.06;100.00;100780.75;10491661;28;20032;-68
2024/03/04 00:24:42;;;;;;;4.13;1.65;;;;;;;8.00;100.00;100787.72;10491630;28;20025;-68
2024/03/04 00:29:43;;;;;;;3.80;1.65;;;;;;;7.98;100.00;100802.41;10507260;28;20027;-68
2024/03/04 00:34:43;;;;;;;1.80;1.00;;;;;;;7.99;100.00;100806.78;10491407;28;20570;-68
2024/03/04 00:39:45;;;;;;;8.18;1.95;;;;;;;7.97;100.00;100815.03;10491222;28;20108;-69
2024/03/04 00:44:46;;;;;;;4.20;1.50;;;;;;;7.91;100.00;100807.69;10491660;28;20107;-69
2024/03/04 00:49:46;;;;;;;1.65;0.80;;;;;;;7.87;100.00;100799.13;10507398;28;20499;-69
2024/03/04 00:54:46;;;;;;;1.67;1.58;;;;;;;7.84;100.00;100804.88;10491338;28;20032;-70
2024/03/04 00:59:47;;;;;;;7.05;1.73;;;;;;;7.84;100.00;100807.56;10491809;28;20075;-69
2024/03/04 01:04:48;;;;;;;4.45;1.25;;;;;;;7.87;100.00;100809.06;10490374;28;20024;-70
2024/03/04 01:09:48;;;;;;;1.85;1.38;;;;;;;7.87;100.00;100801.81;10491522;28;20082;-69
2024/03/04 01:14:48;;;;;;;3.15;1.38;;;;;;;7.86;100.00;100810.09;10493542;28;20029;-69
2024/03/04 01:19:51;;;;;;;7.88;1.70;;;;;;;7.83;100.00;100822.06;10496591;28;20086;-69
2024/03/04 01:24:51;;;;;;;0.95;0.95;;;;;;;7.78;100.00;100823.63;10497216;28;20040;-68
2024/03/04 01:29:51;;;;;;;8.05;1.98;;;;;;;7.75;100.00;100837.47;10497950;28;20384;-69
2024/03/04 01:34:52;;;;;;;2.00;1.40;;;;;;;7.74;100.00;100841.19;10497147;28;20024;-69
2024/03/04 01:39:52;;;;;;;3.42;1.40;;;;;;;7.73;100.00;100836.84;10497216;28;20427;-69
2024/03/04 01:44:53;;;;;;;1.05;1.05;;;;;;;7.73;100.00;100851.13;10497307;28;20044;-70
2024/03/04 01:49:53;;;;;;;3.05;1.05;;;;;;;7.75;100.00;100845.56;10496866;28;20016;-69
2024/03/04 01:54:54;;;;;;;3.72;1.80;;;;;;;7.74;100.00;100862.75;10496800;28;20058;-70
2024/03/04 01:59:54;;;;;;;3.53;0.95;;;;;;;7.74;100.00;100860.06;10496534;28;20041;-69
2024/03/04 02:04:56;;;;;;;6.15;1.65;;;;;;;7.76;100.00;100875.03;10494701;28;20445;-68
2024/03/04 02:09:56;;;;;;;4.63;1.98;;;;;;;7.80;100.00;100878.22;10495552;28;20020;-69
2024/03/04 02:14:57;;;;;;;3.22;1.75;;;;;;;7.80;100.00;100889.00;10477799;28;20032;-68
2024/03/04 02:20:08;;;;;;;2.25;1.50;;;;;;;7.79;100.00;100888.16;10494379;28;20048;-69
2024/03/04 02:25:12;;;;;;;2.05;1.23;;;;;;;7.75;100.00;100891.38;10495454;28;20031;-69
2024/03/04 02:30:12;;;;;;;2.50;1.02;;;;;;;7.77;100.00;100892.88;10494932;28;20029;-69
2024/03/04 02:35:13;;;;;;;2.83;1.65;;;;;;;7.80;100.00;100895.22;10495737;28;20464;-69
2024/03/04 02:40:13;;;;;;;4.80;1.55;;;;;;;7.75;100.00;100881.44;10493522;28;20333;-68
2024/03/04 02:45:13;;;;;;;0.98;0.98;;;;;;;7.74;100.00;100885.16;10494956;28;20119;-70
2024/03/04 02:50:14;;;;;;;1.55;0.93;;;;;;;7.66;100.00;100899.53;10495313;28;20024;-69
2024/03/04 02:55:15;;;;;;;4.30;1.58;;;;;;;7.58;100.00;100902.28;10495375;28;20085;-71
2024/03/04 03:00:15;;;;;;;3.55;1.45;;;;;;;7.51;100.00;100927.41;10493399;28;20121;-69
2024/03/04 03:05:16;;;;;;;1.50;1.17;;;;;;;7.44;100.00;100925.44;10492749;28;20754;-70
2024/03/04 03:10:16;;;;;;;1.33;1.33;;;;;;;7.41;100.00;100927.66;10493988;28;20123;-68
2024/03/04 03:15:17;;;;;;;3.25;1.60;;;;;;;7.33;100.00;100931.19;10493934;28;20041;-70
2024/03/04 03:20:18;;;;;;;1.85;1.50;;;;;;;7.27;100.00;100945.38;10493632;28;20040;-69
2024/03/04 03:25:18;;;;;;;2.03;1.33;;;;;;;7.20;100.00;100942.53;10494387;28;20043;-69
2024/03/04 03:30:19;;;;;;;3.90;1.27;;;;;;;7.14;100.00;100940.53;10492855;28;20094;-68
2024/03/04 03:35:19;;;;;;;1.83;1.63;;;;;;;7.14;100.00;100947.78;10493775;28;20429;-70
2024/03/04 03:40:20;;;;;;;3.80;1.83;;;;;;;7.10;100.00;100947.28;10491948;28;20064;-69
2024/03/04 03:45:20;;;;;;;2.67;1.50;;;;;;;7.07;100.00;100963.78;10491657;28;20450;-69
2024/03/04 03:50:21;;;;;;;3.38;1.83;;;;;;;7.06;100.00;100972.06;10492981;28;20084;-69
2024/03/04 03:55:21;;;;;;;4.63;2.15;;;;;;;7.03;100.00;100973.25;10493555;28;20424;-69
2024/03/04 04:00:21;;;;;;;7.80;2.10;;;;;;;6.98;100.00;100976.44;10507214;28;20080;-68
2024/03/04 04:05:22;;;;;;;1.75;1.33;;;;;;;6.97;100.00;100982.84;10492400;28;20036;-69
2024/03/04 04:10:22;;;;;;;1.67;1.40;;;;;;;7.01;100.00;100986.03;10490736;28;20056;-68
2024/03/04 04:15:23;;;;;;;2.40;1.38;;;;;;;7.03;100.00;100978.63;10492038;28;20028;-69
2024/03/04 04:20:24;;;;;;;2.00;1.80;;;;;;;7.05;100.00;100998.16;10491309;28;20498;-68
2024/03/04 04:25:24;;;;;;;1.02;0.93;;;;;;;7.03;100.00;100984.00;10507707;28;20040;-68
2024/03/04 04:30:25;;;;;;;3.00;1.27;;;;;;;7.09;100.00;100996.78;10492700;28;20032;-70
2024/03/04 04:35:25;;;;;;;1.42;1.33;;;;;;;7.11;100.00;100997.44;10491440;28;20043;-69
2024/03/04 04:40:26;;;;;;;4.57;1.63;;;;;;;7.10;100.00;100995.75;10491119;28;20561;-69
2024/03/04 04:45:26;;;;;;;1.15;1.05;;;;;;;7.11;100.00;100991.22;10506273;28;20054;-69
2024/03/04 04:50:27;;;;;;;1.70;1.60;;;;;;;7.12;100.00;100988.38;10495215;28;20053;-69
2024/03/04 04:55:27;;;;;;;1.20;1.15;;;;;;;7.13;100.00;100990.03;10499275;28;20028;-70
2024/03/04 05:00:27;;;;;;;1.42;0.98;;;;;;;7.14;100.00;101002.47;10496774;28;20055;-69
2024/03/04 05:05:28;;;;;;;0.93;0.93;;;;;;;7.14;100.00;100996.25;10501486;28;20114;-69
2024/03/04 05:10:28;;;;;;;4.90;1.48;;;;;;;7.17;100.00;101012.06;10501027;28;20033;-69
2024/03/04 05:15:30;;;;;;;2.00;1.13;;;;;;;7.17;100.00;101009.38;10497316;28;20357;-69
2024/03/04 05:20:31;;;;;;;6.45;1.05;;;;;;;7.16;100.00;101022.00;10498944;28;20024;-70
2024/03/04 05:25:31;;;;;;;3.00;1.00;;;;;;;7.15;100.00;101025.72;10498450;28;20141;-68
2024/03/04 05:30:32;;;;;;;3.13;1.67;;;;;;;7.13;100.00;101022.34;10497204;28;20028;-70
2024/03/04 05:35:32;;;;;;;1.50;1.38;;;;;;;7.12;100.00;101031.44;10497348;28;20180;-67
2024/03/04 05:40:32;;;;;;;2.00;1.80;;;;;;;7.12;100.00;101030.63;10460535;28;20587;-69
2024/03/04 05:45:33;;;;;;;4.00;1.48;;;;;;;7.13;100.00;101029.59;10496985;28;20523;-69
2024/03/04 05:50:33;;;;;;;2.03;1.73;;;;;;;7.13;100.00;101040.38;10496946;28;20058;-71
2024/03/04 05:55:35;;;;;;;1.38;0.93;;;;;;;7.07;100.00;101028.41;10496611;28;20032;-71
2024/03/04 06:00:35;;;;;;;3.95;1.30;;;;;;;7.13;100.00;101048.44;10510500;28;20056;-70
2024/03/04 06:05:36;;;;;;;3.25;1.95;;;;;;;7.15;100.00;101035.66;10496626;28;20036;-69
2024/03/04 06:10:36;;;;;;;1.17;0.98;;;;;;;7.16;100.00;101037.31;10496386;28;20467;-69
2024/03/04 06:15:37;;;;;;;8.57;1.67;;;;;;;7.16;100.00;101037.31;10496482;28;20040;-69
2024/03/04 06:20:37;;;;;;;1.33;1.33;;;;;;;7.15;100.00;101049.13;10496423;28;20021;-69
2024/03/04 06:25:37;;;;;;;1.50;1.40;;;;;;;7.14;100.00;101040.19;10495807;28;20090;-70
2024/03/04 06:30:38;;;;;;;6.07;1.92;;;;;;;7.17;100.00;101033.63;10494838;28;20394;-70
2024/03/04 06:35:38;;;;;;;11.73;2.50;;;;;;;7.28;100.00;101052.13;10495137;28;20083;-71
2024/03/04 06:40:39;;;;;;;3.72;1.50;;;;;;;7.48;100.00;101049.03;10494890;28;20028;-70
2024/03/04 06:45:39;;;;;;;1.95;1.30;;;;;;;7.40;100.00;101063.34;10494895;28;20032;-71
2024/03/04 06:50:40;;;;;;;7.75;2.80;;;;;;;7.34;100.00;101062.19;10494457;28;20031;-69
2024/03/04 06:55:40;;;;;;;6.65;2.03;;;;;;;7.31;100.00;101083.25;10493898;28;20029;-69
2024/03/04 07:00:40;;;;;;;1.60;1.50;;;;;;;7.35;100.00;101093.50;10493469;28;20124;-71
2024/03/04 07:05:41;;;;;;;8.27;2.03;;;;;;;7.36;100.00;101105.97;10492657;28;20037;-71
2024/03/04 07:10:41;;;;;;;3.05;2.63;;;;;;;7.40;100.00;101109.16;10475562;28;20036;-70
2024/03/04 07:15:42;;;;;;;2.78;1.38;;;;;;;7.44;100.00;101126.66;10493486;28;20084;-69
2024/03/04 07:20:42;;;;;;;2.42;2.22;;;;;;;7.51;100.00;101116.88;10494096;28;20036;-69
2024/03/04 07:25:42;;;;;;;1.90;1.77;;;;;;;7.58;100.00;101117.88;10494476;28;20040;-69
2024/03/04 07:30:43;;;;;;;4.65;2.85;;;;;;;7.69;100.00;101136.38;10508905;28;20024;-69
2024/03/04 07:35:43;;;;;;;1.15;1.15;;;;;;;7.81;100.00;101139.53;10491754;28;20119;-70
2024/03/04 07:40:44;;;;;;;4.82;1.88;;;;;;;7.92;100.00;101135.63;10492631;28;20032;-71
2024/03/04 07:45:44;;;;;;;1.80;1.70;;;;;;;8.11;100.00;101126.28;10492085;28;20488;-70
2024/03/04 07:50:45;;;;;;;3.40;1.85;;;;;;;8.32;100.00;101131.03;10493489;28;20055;-69
2024/03/04 07:55:46;;;;;;;7.15;2.38;;;;;;;8.48;100.00;101132.84;10493061;28;20036;-70
2024/03/04 08:00:46;;;;;;;4.57;2.28;;;;;;;8.67;100.00;101128.84;10492908;28;20047;-69
2024/03/04 08:05:48;;;;;;;3.50;2.22;;;;;;;8.78;100.00;101131.16;10493044;28;20071;-70
2024/03/04 08:10:50;;;;;;;3.00;2.13;;;;;;;8.83;100.00;101150.31;10494035;28;20020;-70
2024/03/04 08:15:51;;;;;;;3.47;1.83;;;;;;;8.78;100.00;101153.56;10492603;28;20678;-70
2024/03/04 08:20:52;;;;;;;2.70;1.85;;;;;;;8.72;100.00;101164.25;10493247;28;20067;-69
2024/03/04 08:25:53;;;;;;;2.67;2.47;;;;;;;8.70;100.00;101160.88;10493034;28;20059;-70
2024/03/04 08:30:53;;;;;;;2.25;2.13;;;;;;;8.67;100.00;101164.78;10492443;28;20017;-69
2024/03/04 08:35:53;;;;;;;9.68;3.03;;;;;;;8.70;100.00;101163.59;10492172;28;20484;-70
2024/03/04 08:40:54;;;;;;;5.05;2.95;;;;;;;8.76;100.00;101170.97;10491729;28;20032;-70
2024/03/04 08:45:54;;;;;;;3.45;2.17;;;;;;;8.85;100.00;101159.94;10491866;28;20028;-69
2024/03/04 08:50:55;;;;;;;13.38;3.83;;;;;;;8.98;100.00;101172.84;10491920;28;20603;-71
2024/03/04 08:55:56;;;;;;;3.67;2.63;;;;;;;9.17;100.00;101178.78;10491777;28;20062;-69
2024/03/04 09:00:57;;;;;;;4.22;2.53;;;;;;;9.40;100.00;101168.75;10491457;28;20041;-70
2024/03/04 09:05:57;;;;;;;3.33;3.03;;;;;;;9.63;100.00;101170.56;10491266;28;20526;-70
2024/03/04 09:10:57;;;;;;;8.82;3.28;;;;;;;9.82;100.00;101164.63;10491119;28;20056;-71
2024/03/04 09:15:58;;;;;;;6.93;4.25;;;;;;;10.09;100.00;101170.41;10489629;28;20058;-70
2024/03/04 09:20:58;;;;;;;4.70;3.53;;;;;;;10.22;100.00;101184.94;10490743;28;20140;-71
2024/03/04 09:25:59;;;;;;;5.85;4.15;;;;;;;10.34;100.00;101182.66;10489085;28;20044;-69
2024/03/04 09:30:59;;;;;;;8.93;4.60;;;;;;;10.40;100.00;101181.88;10488595;28;20024;-70
2024/03/04 09:36:00;;;;;;;12.00;4.85;;;;;;;10.78;100.00;101184.38;10493880;28;20028;-69
2024/03/04 09:41:02;;;;;;;5.95;4.93;;;;;;;11.61;100.00;101176.59;10497718;28;20032;-70
2024/03/04 09:46:02;;;;;;;4.95;4.40;;;;;;;11.92;100.00;101178.09;10496534;28;20099;-70
2024/03/04 09:51:03;;;;;;;4.68;4.10;;;;;;;13.48;100.00;101184.41;10496291;28;20115;-71
2024/03/04 09:56:04;;;;;;;3.88;3.58;;;;;;;13.73;100.00;101180.00;10495925;28;20053;-71
2024/03/04 10:01:04;;;;;;;9.88;6.18;;;;;;;13.40;100.00;101180.03;10495140;28;20040;-71
2024/03/04 10:06:05;;;;;;;6.32;4.60;;;;;;;13.65;100.00;101187.53;10512253;28;20059;-70
2024/03/04 10:11:05;;;;;;;6.00;5.03;;;;;;;14.21;100.00;101181.56;10495137;28;20388;-70
2024/03/04 10:16:09;;;;;;;13.93;5.60;;;;;;;14.32;100.00;101188.22;10495585;28;20036;-69
2024/03/04 10:21:10;;;;;;;5.43;4.10;;;;;;;13.71;100.00;101179.38;10496728;28;20032;-70
2024/03/04 10:26:10;;;;;;;4.35;3.95;;;;;;;13.43;100.00;101189.63;10495189;28;20028;-69
2024/03/04 10:31:11;;;;;;;5.30;4.07;;;;;;;13.61;100.00;101181.69;10493717;28;20028;-70
2024/03/04 10:36:19;;;;;;;5.35;4.22;;;;;;;13.83;100.00;101189.63;10494506;28;20020;-71
2024/03/04 10:41:20;;;;;;;5.57;4.80;;;;;;;14.54;100.00;101186.06;10495141;28;20114;-70
2024/03/04 10:46:20;;;;;;;5.22;4.15;;;;;;;16.54;100.00;101191.50;10493116;28;20028;-69
2024/03/04 10:51:21;;;;;;;4.25;3.75;;;;;;;16.52;100.00;101189.00;10494744;28;20036;-69
2024/03/04 10:56:21;;;;;;;5.25;4.07;;;;;;;15.38;100.00;101184.06;10493255;28;20082;-70
2024/03/04 11:01:22;;;;;;;4.60;4.18;;;;;;;15.27;100.00;101182.91;10494308;28;20044;-70
2024/03/04 11:06:22;;;;;;;7.15;3.78;;;;;;;16.56;100.00;101174.88;10492895;28;20040;-69
2024/03/04 11:11:38;;;;;;;10.68;4.57;;;;;;;16.30;99.69;101173.31;10494247;28;20460;-70
2024/03/04 11:16:58;;;;;;;3.13;2.92;;;;;;;16.01;100.00;101167.53;10492833;28;20093;-70
2024/03/04 11:22:00;;;;;;;4.07;3.72;;;;;;;16.56;100.00;101166.66;10509972;28;20052;-70
2024/03/04 11:27:00;;;;;;;7.45;4.63;;;;;;;17.83;100.00;101177.34;10492076;28;20028;-71
2024/03/04 11:32:02;;;;;;;5.38;4.30;;;;;;;18.48;74.11;101173.56;10493241;28;20035;-71
2024/03/04 11:37:03;;;;;;;4.63;4.13;;;;;;;18.58;79.48;101162.78;10491679;28;20025;-70
2024/03/04 11:42:03;;;;;;;7.55;4.22;;;;;;;18.62;79.88;101169.44;10491665;28;20649;-70
2024/03/04 11:47:09;;;;;;;5.80;3.75;;;;;;;18.54;74.58;101161.63;10491652;28;20035;-70
2024/03/04 11:52:14;;;;;;;5.22;4.68;;;;;;;18.40;66.76;101163.78;10494639;28;20037;-71
2024/03/04 11:57:18;;;;;;;7.20;3.75;;;;;;;18.47;76.19;101166.38;10491057;28;20427;-70
2024/03/04 12:02:19;;;;;;;6.32;4.97;;;;;;;18.87;89.85;101163.63;10490171;28;20361;-73
2024/03/04 12:07:22;;;;;;;3.97;3.60;;;;;;;18.88;66.97;101158.97;10491102;28;20044;-70
2024/03/04 12:12:23;;;;;;;5.75;5.15;;;;;;;18.35;79.12;101158.22;10508254;28;20020;-71
2024/03/04 12:17:23;;;;;;;4.72;4.25;;;;;;;18.49;70.82;101158.75;10490716;28;20059;-70
2024/03/04 12:22:27;;;;;;;14.68;3.92;;;;;;;18.49;63.39;101153.28;10492497;28;20115;-71
2024/03/04 12:27:27;;;;;;;6.35;4.53;;;;;;;18.42;72.95;101155.34;10491815;28;20484;-70
2024/03/04 12:32:28;;;;;;;4.78;4.38;;;;;;;18.41;56.13;101161.88;10489748;28;20052;-70
2024/03/04 12:37:31;;;;;;;5.93;3.65;;;;;;;17.51;53.78;101154.94;10490409;28;20437;-70
2024/03/04 12:42:31;;;;;;;3.17;2.95;;;;;;;17.89;63.89;101158.03;10491517;28;20035;-69
2024/03/04 12:47:34;;;;;;;4.50;3.88;;;;;;;18.56;79.15;101156.69;10473636;28;20060;-70
2024/03/04 12:52:35;;;;;;;8.05;4.07;;;;;;;19.07;87.26;101156.84;10490299;28;20020;-69
2024/03/04 12:57:35;;;;;;;4.13;3.72;;;;;;;18.84;81.30;101160.56;10490368;28;20044;-71
2024/03/04 13:02:36;;;;;;;3.90;3.60;;;;;;;19.00;85.53;101154.25;10491731;28;20131;-70
2024/03/04 13:07:36;;;;;;;5.20;4.70;;;;;;;18.63;67.77;101146.41;10491805;28;20417;-70
2024/03/04 13:12:40;;;;;;;10.85;4.57;;;;;;;18.47;76.58;101144.44;10496032;28;20028;-70
2024/03/04 13:17:44;;;;;;;4.20;3.88;;;;;;;18.42;90.37;101142.44;10498309;28;20025;-70
2024/03/04 13:22:46;;;;;;;8.00;4.63;;;;;;;18.43;94.35;101143.28;10497411;28;20078;-70
2024/03/04 13:27:47;;;;;;;5.78;5.28;;;;;;;18.20;98.25;101133.22;10498368;28;20400;-69
2024/03/04 13:32:47;;;;;;;5.53;5.00;;;;;;;18.07;97.45;101137.06;10498127;28;20040;-70
2024/03/04 13:37:47;;;;;;;7.75;4.93;;;;;;;17.90;86.24;101126.03;10498070;28;20388;-70
2024/03/04 13:42:48;;;;;;;5.00;4.47;;;;;;;17.97;87.35;101125.91;10512978;28;20036;-70
2024/03/04 13:47:48;;;;;;;6.40;4.90;;;;;;;18.07;93.52;101121.44;10495883;28;20043;-71
2024/03/04 13:52:49;;;;;;;6.22;4.88;;;;;;;17.85;95.39;101120.41;10497466;28;20020;-69
2024/03/04 13:57:49;;;;;;;3.90;3.60;;;;;;;17.72;95.34;101121.47;10495657;28;20072;-70
2024/03/04 14:02:50;;;;;;;4.20;3.53;;;;;;;17.52;100.00;101110.06;10495007;28;20048;-71
2024/03/04 14:07:50;;;;;;;3.80;3.40;;;;;;;17.63;100.00;101112.78;10498178;28;20093;-70
2024/03/04 14:12:51;;;;;;;3.47;3.20;;;;;;;17.46;100.00;101113.75;10497665;28;20020;-71
2024/03/04 14:17:52;;;;;;;8.20;4.15;;;;;;;17.23;100.00;101109.09;10496824;28;20027;-71
2024/03/04 14:22:52;;;;;;;4.05;3.38;;;;;;;16.72;79.30;101117.66;10494642;28;20032;-71
2024/03/04 14:27:52;;;;;;;3.80;3.30;;;;;;;16.73;92.16;101113.00;10497168;28;20037;-71
2024/03/04 14:32:53;;;;;;;3.22;2.67;;;;;;;16.43;97.16;101102.94;10494686;28;20449;-71
2024/03/04 14:37:53;;;;;;;3.25;3.03;;;;;;;16.17;100.00;101104.09;10495566;28;20032;-71
2024/03/04 14:42:54;;;;;;;3.65;2.95;;;;;;;16.23;100.00;101108.63;10495996;28;20032;-71
2024/03/04 14:47:55;;;;;;;3.63;2.60;;;;;;;15.95;100.00;101101.03;10494108;28;20107;-71
2024/03/04 14:52:55;;;;;;;5.65;3.00;;;;;;;15.77;100.00;101099.13;10493698;28;20602;-70
2024/03/04 14:57:56;;;;;;;4.00;2.95;;;;;;;15.30;100.00;101103.34;10493224;28;20052;-70
2024/03/04 15:02:56;;;;;;;5.00;3.17;;;;;;;15.18;100.00;101102.38;10494291;28;20036;-70
2024/03/04 15:07:57;;;;;;;3.78;3.17;;;;;;;15.14;100.00;101107.47;10494426;28;20028;-71
2024/03/04 15:12:58;;;;;;;4.00;3.35;;;;;;;14.84;100.00;101099.09;10494273;28;20036;-71
2024/03/04 15:17:59;;;;;;;3.95;2.80;;;;;;;14.37;100.00;101104.81;10509938;28;20067;-70
2024/03/04 15:23:00;;;;;;;3.53;3.22;;;;;;;13.85;100.00;101101.25;10492570;28;20090;-71
2024/03/04 15:28:00;;;;;;;2.20;2.10;;;;;;;13.43;100.00;101118.91;10494186;28;20040;-71
2024/03/04 15:33:01;;;;;;;3.35;2.92;;;;;;;13.01;100.00;101107.38;10493696;28;20031;-70
2024/03/04 15:38:01;;;;;;;6.32;3.30;;;;;;;12.66;100.00;101110.28;10508980;28;20028;-71
2024/03/04 15:43:02;;;;;;;2.92;2.60;;;;;;;12.28;99.38;101110.81;10492262;28;20086;-71
2024/03/04 15:48:02;;;;;;;2.10;2.00;;;;;;;11.90;96.05;101106.88;10493136;28;20123;-71
2024/03/04 15:53:03;;;;;;;4.55;1.90;;;;;;;11.48;82.80;101111.41;10491613;28;20112;-71
2024/03/04 15:58:08;;;;;;;2.47;2.28;;;;;;;11.26;88.59;101111.44;10491879;28;20110;-70
2024/03/04 16:03:08;;;;;;;2.13;1.95;;;;;;;11.01;83.61;101115.63;10492417;28;20036;-71
2024/03/04 16:08:09;;;;;;;2.28;2.05;;;;;;;10.78;81.37;101119.38;10493021;28;20033;-71
2024/03/04 16:13:09;;;;;;;1.60;1.50;;;;;;;10.41;70.59;101110.47;10491483;28;20021;-70
2024/03/04 16:18:10;;;;;;;4.10;2.42;;;;;;;10.29;74.56;101111.16;10507766;28;20029;-70
2024/03/04 16:23:10;;;;;;;1.77;1.63;;;;;;;10.13;74.70;101113.00;10493321;28;20032;-70
2024/03/04 16:28:10;;;;;;;2.40;2.20;;;;;;;9.96;76.91;101112.41;10473942;28;20028;-71
2024/03/04 16:33:11;;;;;;;8.50;1.92;;;;;;;9.76;77.32;101119.38;10490790;28;20609;-70
2024/03/04 16:38:12;;;;;;;1.88;1.77;;;;;;;9.61;79.22;101118.56;10491371;28;20065;-70
2024/03/04 16:43:12;;;;;;;1.83;1.73;;;;;;;9.43;80.40;101118.91;10506836;28;20037;-71
2024/03/04 16:48:13;;;;;;;1.80;1.70;;;;;;;9.27;80.71;101125.31;10498597;28;20384;-70
2024/03/04 16:53:14;;;;;;;2.03;1.92;;;;;;;9.11;81.33;101120.91;10498230;28;20095;-70
2024/03/04 16:58:15;;;;;;;5.88;1.85;;;;;;;8.97;82.96;101133.34;10497673;28;20630;-71
2024/03/04 17:03:15;;;;;;;2.15;2.05;;;;;;;8.77;84.40;101132.97;10497285;28;20032;-70
2024/03/04 17:08:15;;;;;;;2.72;1.75;;;;;;;8.58;85.20;101141.53;10498143;28;20066;-71
2024/03/04 17:13:16;;;;;;;2.78;2.47;;;;;;;8.44;85.35;101145.84;10499205;28;20048;-70
2024/03/04 17:18:16;;;;;;;10.23;2.53;;;;;;;8.36;86.41;101144.03;10498868;28;20173;-71
2024/03/04 17:23:17;;;;;;;4.97;2.42;;;;;;;8.21;86.43;101144.94;10497342;28;20045;-71
2024/03/04 17:28:18;;;;;;;2.97;2.47;;;;;;;8.01;87.55;101150.78;10514072;28;20037;-70
2024/03/04 17:33:19;;;;;;;2.60;2.40;;;;;;;7.89;87.61;101152.16;10498090;28;20082;-71
2024/03/04 17:38:20;;;;;;;2.20;2.08;;;;;;;7.77;88.42;101159.75;10498624;28;20108;-70
2024/03/04 17:43:21;;;;;;;2.13;2.03;;;;;;;7.70;88.62;101156.09;10498651;28;20115;-70
2024/03/04 17:48:21;;;;;;;2.47;2.25;;;;;;;7.54;89.30;101153.44;10497816;28;20138;-71
2024/03/04 17:53:22;;;;;;;5.38;3.25;;;;;;;7.33;89.34;101159.34;10498057;28;20029;-71
2024/03/04 17:58:22;;;;;;;2.33;2.17;;;;;;;7.14;90.25;101155.97;10498214;28;20055;-70
2024/03/04 18:03:23;;;;;;;4.18;3.30;;;;;;;6.91;90.96;101150.44;10514028;28;20033;-70
2024/03/04 18:08:23;;;;;;;3.75;2.13;;;;;;;6.92;92.42;101162.03;10500087;28;20040;-71
2024/03/04 18:13:23;;;;;;;2.65;2.45;;;;;;;6.84;92.41;101156.66;10499253;28;20115;-70
2024/03/04 18:18:24;;;;;;;7.53;3.22;;;;;;;6.78;92.94;101162.72;10497913;28;20112;-71
2024/03/04 18:23:24;;;;;;;6.80;3.53;;;;;;;6.77;93.35;101161.88;10496520;28;20037;-71
2024/03/04 18:28:25;;;;;;;2.75;2.55;;;;;;;6.73;93.27;101161.38;10494925;28;20029;-70
2024/03/04 18:33:25;;;;;;;4.25;3.85;;;;;;;6.63;94.21;101160.66;10495560;28;20041;-71
2024/03/04 18:38:26;;;;;;;3.88;3.25;;;;;;;6.49;94.58;101162.16;10498508;28;20105;-70
2024/03/04 18:43:26;;;;;;;5.07;4.68;;;;;;;6.42;95.18;101155.75;10493986;28;20075;-70
2024/03/04 18:48:27;;;;;;;4.43;4.00;;;;;;;6.34;95.62;101160.25;10493715;28;20527;-71
2024/03/04 18:53:27;;;;;;;4.97;4.38;;;;;;;6.23;95.74;101158.72;10493130;28;20521;-71
2024/03/04 18:58:28;;;;;;;5.25;4.55;;;;;;;6.18;96.61;101153.81;10494611;28;20144;-71
2024/03/04 19:03:29;;;;;;;8.75;4.82;;;;;;;6.14;96.87;101165.06;10494894;28;20552;-71
2024/03/04 19:08:29;;;;;;;10.55;5.20;;;;;;;6.22;98.98;101167.75;10494347;28;20395;-70
2024/03/04 19:13:31;;;;;;;6.25;5.35;;;;;;;6.21;99.00;101166.09;10493618;28;20048;-70
2024/03/04 19:18:31;;;;;;;5.15;4.75;;;;;;;6.16;99.55;101165.72;10493156;28;20032;-71
2024/03/04 19:23:32;;;;;;;9.32;5.22;;;;;;;6.01;99.38;101168.19;10476211;28;20028;-70
2024/03/04 19:28:32;;;;;;;15.07;5.35;;;;;;;5.90;100.00;101163.06;10494265;28;20103;-71
2024/03/04 19:33:33;;;;;;;5.07;4.63;;;;;;;5.82;100.00;101164.72;10491506;28;20017;-71
2024/03/04 19:38:34;;;;;;;6.50;5.70;;;;;;;5.80;100.00;101168.56;10493203;28;20056;-72
2024/03/04 19:43:34;;;;;;;5.72;5.22;;;;;;;5.67;100.00;101168.16;10490861;28;20461;-71
2024/03/04 19:48:35;;;;;;;5.80;4.72;;;;;;;5.61;100.00;101169.63;10493978;28;20028;-69
2024/03/04 19:53:39;;;;;;;8.60;5.13;;;;;;;5.58;100.00;101175.31;10492712;28;20056;-72
2024/03/04 19:58:41;;;;;;;9.95;5.53;;;;;;;5.49;100.00;101179.81;10490268;28;20053;-71
2024/03/04 20:03:44;;;;;;;5.75;5.25;;;;;;;5.51;100.00;101182.31;10472931;28;20081;-71
2024/03/04 20:08:49;;;;;;;6.38;5.75;;;;;;;5.49;100.00;101182.50;10492277;28;20025;-70
2024/03/04 20:13:50;;;;;;;6.35;5.65;;;;;;;5.53;100.00;101189.22;10490951;28;20021;-70
2024/03/04 20:18:50;;;;;;;8.25;6.13;;;;;;;5.53;100.00;101181.16;10490463;28;20048;-71
2024/03/04 20:23:51;;;;;;;5.50;4.97;;;;;;;5.52;100.00;101186.69;10489075;28;20044;-69
2024/03/04 20:28:51;;;;;;;10.77;6.22;;;;;;;5.52;100.00;101186.69;10490152;28;20028;-71
2024/03/04 20:33:51;;;;;;;14.52;7.10;;;;;;;5.50;100.00;101175.28;10473477;28;20067;-72
2024/03/04 20:38:52;;;;;;;8.43;7.03;;;;;;;5.51;100.00;101182.31;10491080;28;20048;-71
2024/03/04 20:43:52;;;;;;;8.18;7.07;;;;;;;5.48;100.00;101182.63;10506891;28;20056;-71
2024/03/04 20:48:53;;;;;;;9.07;7.30;;;;;;;5.54;100.00;101195.44;10492542;28;20036;-71
2024/03/04 20:53:53;;;;;;;13.95;8.07;;;;;;;5.49;100.00;101187.88;10494477;28;20064;-71
2024/03/04 20:58:54;;;;;;;9.00;8.10;;;;;;;5.56;100.00;101190.75;10492806;28;20068;-73
2024/03/04 21:03:54;;;;;;;8.60;7.75;;;;;;;5.51;100.00;101182.31;10487999;28;20120;-72
2024/03/04 21:08:57;;;;;;;10.45;8.85;;;;;;;5.43;100.00;101188.50;10471624;28;20029;-71
2024/03/04 21:13:57;;;;;;;12.43;8.50;;;;;;;5.36;100.00;101188.28;10492707;28;20552;-71
2024/03/04 21:18:57;;;;;;;16.00;9.85;;;;;;;5.31;100.00;101185.22;10487806;28;20097;-71
2024/03/04 21:23:58;;;;;;;8.98;8.07;;;;;;;5.34;100.00;101189.44;10490951;28;20025;-73
2024/03/04 21:28:59;;;;;;;10.75;9.35;;;;;;;5.27;100.00;101181.16;10474664;28;20068;-72
2024/03/04 21:34:00;;;;;;;14.18;9.65;;;;;;;5.23;100.00;101184.28;10497944;28;20036;-72
2024/03/04 21:39:04;;;;;;;11.98;9.32;;;;;;;5.21;100.00;101184.47;10499476;28;20115;-69
2024/03/04 21:44:06;;;;;;;14.60;10.43;;;;;;;5.19;100.00;101177.56;10499556;28;20073;-70
2024/03/04 21:49:06;;;;;;;14.35;10.77;;;;;;;5.12;100.00;101174.66;10500393;28;20178;-70
2024/03/04 21:54:07;;;;;;;16.92;10.68;;;;;;;5.09;100.00;101183.00;10500075;28;20381;-69
2024/03/04 21:59:08;;;;;;;13.55;10.40;;;;;;;5.02;100.00;101174.72;10501713;28;20049;-70
2024/03/04 22:04:09;;;;;;;15.15;9.85;;;;;;;4.96;100.00;101174.50;10497268;28;20480;-70
2024/03/04 22:09:18;;;;;;;11.27;10.02;;;;;;;4.92;100.00;101171.28;10497608;28;20029;-71
2024/03/04 22:14:18;;;;;;;17.15;11.18;;;;;;;4.87;100.00;101181.63;10497655;28;20079;-70
2024/03/04 22:19:20;;;;;;;10.68;9.55;;;;;;;4.76;100.00;101172.00;10497742;28;20054;-70
2024/03/04 22:24:21;;;;;;;11.02;9.80;;;;;;;4.72;100.00;101183.16;10497086;28;20524;-69
2024/03/04 22:29:21;;;;;;;14.05;11.45;;;;;;;4.62;100.00;101189.44;10497410;28;20085;-69
2024/03/04 22:34:22;;;;;;;14.40;11.20;;;;;;;4.65;100.00;101181.09;10497544;28;20028;-70
2024/03/04 22:39:23;;;;;;;14.20;10.57;;;;;;;4.58;100.00;101177.31;10498031;28;20047;-70
2024/03/04 22:44:23;;;;;;;13.05;8.98;;;;;;;4.51;100.00;101183.47;10497435;28;20032;-70
2024/03/04 22:49:24;;;;;;;11.15;10.02;;;;;;;4.45;100.00;101189.44;10498386;28;20036;-70
2024/03/04 22:54:24;;;;;;;16.17;10.63;;;;;;;4.39;100.00;101172.94;10497854;28;20133;-70
2024/03/04 22:59:25;;;;;;;12.02;10.82;;;;;;;4.45;100.00;101184.06;10495609;28;20055;-69